sensor_id;sensor_type;location;lat;lon;timestamp;P1;durP1;ratioP1;P2;durP2;ratioP2
48703;SDS011;34502;51.296;16.918;2022-12-07T00:03:45;15.00;;;10.65;;
48703;SDS011;34502;51.296;16.918;2022-12-07T00:06:13;13.35;;;10.05;;
48703;SDS011;34502;51.296;16.918;2022-12-07T00:08:40;10.65;;;8.25;;
48703;SDS011;34502;51.296;16.918;2022-12-07T00:11:07;13.20;;;9.70;;
48703;SDS011;34502;51.296;16.918;2022-12-07T00:13:38;10.63;;;7.57;;
48703;SDS011;34502;51.296;16.918;2022-12-07T00:16:10;8.82;;;7.78;;
48703;SDS011;34502;51.296;16.918;2022-12-07T00:18:38;10.35;;;7.22;;
48703;SDS011;34502;51.296;16.918;2022-12-07T00:21:05;9.20;;;7.18;;
48703;SDS011;34502;51.296;16.918;2022-12-07T00:23:34;8.45;;;7.28;;
48703;SDS011;34502;51.296;16.918;2022-12-07T00:26:07;9.35;;;6.38;;
48703;SDS011;34502;51.296;16.918;2022-12-07T00:28:55;9.52;;;6.78;;
48703;SDS011;34502;51.296;16.918;2022-12-07T00:31:26;6.50;;;5.85;;
48703;SDS011;34502;51.296;16.918;2022-12-07T00:33:54;9.07;;;6.20;;
48703;SDS011;34502;51.296;16.918;2022-12-07T00:36:21;7.88;;;6.05;;
48703;SDS011;34502;51.296;16.918;2022-12-07T00:38:48;6.30;;;5.63;;
48703;SDS011;34502;51.296;16.918;2022-12-07T00:41:15;5.88;;;5.28;;
48703;SDS011;34502;51.296;16.918;2022-12-07T00:43:42;8.20;;;6.45;;
48703;SDS011;34502;51.296;16.918;2022-12-07T00:46:09;7.43;;;5.75;;
48703;SDS011;34502;51.296;16.918;2022-12-07T00:48:36;7.03;;;5.60;;
48703;SDS011;34502;51.296;16.918;2022-12-07T00:51:02;6.90;;;5.90;;
48703;SDS011;34502;51.296;16.918;2022-12-07T00:53:29;6.63;;;5.35;;
48703;SDS011;34502;51.296;16.918;2022-12-07T00:55:55;6.13;;;4.68;;
48703;SDS011;34502;51.296;16.918;2022-12-07T00:58:22;5.75;;;4.70;;
48703;SDS011;34502;51.296;16.918;2022-12-07T01:00:48;5.40;;;4.80;;
48703;SDS011;34502;51.296;16.918;2022-12-07T01:03:15;7.13;;;4.95;;
48703;SDS011;34502;51.296;16.918;2022-12-07T01:05:51;8.02;;;5.70;;
48703;SDS011;34502;51.296;16.918;2022-12-07T01:08:19;8.10;;;5.50;;
48703;SDS011;34502;51.296;16.918;2022-12-07T01:10:46;5.43;;;4.22;;
48703;SDS011;34502;51.296;16.918;2022-12-07T01:13:12;7.05;;;5.10;;
48703;SDS011;34502;51.296;16.918;2022-12-07T01:15:39;4.65;;;4.20;;
48703;SDS011;34502;51.296;16.918;2022-12-07T01:18:09;5.40;;;4.72;;
48703;SDS011;34502;51.296;16.918;2022-12-07T01:20:35;3.83;;;3.53;;
48703;SDS011;34502;51.296;16.918;2022-12-07T01:23:02;5.10;;;4.45;;
48703;SDS011;34502;51.296;16.918;2022-12-07T01:25:28;4.93;;;3.97;;
48703;SDS011;34502;51.296;16.918;2022-12-07T01:27:54;4.93;;;3.92;;
48703;SDS011;34502;51.296;16.918;2022-12-07T01:30:21;6.53;;;4.50;;
48703;SDS011;34502;51.296;16.918;2022-12-07T01:32:47;5.82;;;4.28;;
48703;SDS011;34502;51.296;16.918;2022-12-07T01:35:13;5.53;;;4.38;;
48703;SDS011;34502;51.296;16.918;2022-12-07T01:37:39;5.50;;;3.75;;
48703;SDS011;34502;51.296;16.918;2022-12-07T01:40:06;4.85;;;4.03;;
48703;SDS011;34502;51.296;16.918;2022-12-07T01:42:33;4.20;;;3.17;;
48703;SDS011;34502;51.296;16.918;2022-12-07T01:48:10;3.55;;;3.25;;
48703;SDS011;34502;51.296;16.918;2022-12-07T01:50:37;3.53;;;3.22;;
48703;SDS011;34502;51.296;16.918;2022-12-07T01:53:05;3.95;;;3.55;;
48703;SDS011;34502;51.296;16.918;2022-12-07T01:55:32;3.80;;;3.30;;
48703;SDS011;34502;51.296;16.918;2022-12-07T01:57:59;4.10;;;3.25;;
48703;SDS011;34502;51.296;16.918;2022-12-07T02:00:25;3.65;;;3.00;;
48703;SDS011;34502;51.296;16.918;2022-12-07T02:05:22;2.95;;;2.70;;
48703;SDS011;34502;51.296;16.918;2022-12-07T02:07:50;4.43;;;3.45;;
48703;SDS011;34502;51.296;16.918;2022-12-07T02:10:22;3.35;;;3.03;;
48703;SDS011;34502;51.296;16.918;2022-12-07T02:12:58;3.22;;;2.30;;
48703;SDS011;34502;51.296;16.918;2022-12-07T02:15:41;3.00;;;2.50;;
48703;SDS011;34502;51.296;16.918;2022-12-07T02:18:46;2.60;;;2.28;;
48703;SDS011;34502;51.296;16.918;2022-12-07T02:29:27;4.18;;;2.80;;
48703;SDS011;34502;51.296;16.918;2022-12-07T02:35:00;3.53;;;2.70;;
48703;SDS011;34502;51.296;16.918;2022-12-07T02:37:35;3.92;;;2.78;;
48703;SDS011;34502;51.296;16.918;2022-12-07T02:42:52;3.90;;;2.30;;
48703;SDS011;34502;51.296;16.918;2022-12-07T02:45:36;3.15;;;2.50;;
48703;SDS011;34502;51.296;16.918;2022-12-07T02:48:03;2.75;;;2.35;;
48703;SDS011;34502;51.296;16.918;2022-12-07T02:50:30;3.22;;;1.90;;
48703;SDS011;34502;51.296;16.918;2022-12-07T02:52:56;3.42;;;2.13;;
48703;SDS011;34502;51.296;16.918;2022-12-07T02:55:25;1.63;;;1.52;;
48703;SDS011;34502;51.296;16.918;2022-12-07T03:00:44;1.75;;;1.65;;
48703;SDS011;34502;51.296;16.918;2022-12-07T03:03:17;2.15;;;1.75;;
48703;SDS011;34502;51.296;16.918;2022-12-07T03:08:30;1.67;;;1.58;;
48703;SDS011;34502;51.296;16.918;2022-12-07T03:11:08;2.83;;;1.80;;
48703;SDS011;34502;51.296;16.918;2022-12-07T03:16:26;2.25;;;1.80;;
48703;SDS011;34502;51.296;16.918;2022-12-07T03:18:55;1.98;;;1.80;;
48703;SDS011;34502;51.296;16.918;2022-12-07T03:21:34;1.92;;;1.70;;
48703;SDS011;34502;51.296;16.918;2022-12-07T03:24:14;2.40;;;1.50;;
48703;SDS011;34502;51.296;16.918;2022-12-07T03:26:52;1.88;;;1.55;;
48703;SDS011;34502;51.296;16.918;2022-12-07T03:29:31;1.88;;;1.50;;
48703;SDS011;34502;51.296;16.918;2022-12-07T03:32:02;2.45;;;1.92;;
48703;SDS011;34502;51.296;16.918;2022-12-07T03:34:39;1.40;;;1.30;;
48703;SDS011;34502;51.296;16.918;2022-12-07T03:37:12;1.50;;;1.40;;
48703;SDS011;34502;51.296;16.918;2022-12-07T03:42:33;1.55;;;1.27;;
48703;SDS011;34502;51.296;16.918;2022-12-07T03:45:00;1.10;;;1.00;;
48703;SDS011;34502;51.296;16.918;2022-12-07T03:50:28;0.80;;;0.80;;
48703;SDS011;34502;51.296;16.918;2022-12-07T03:53:05;1.27;;;1.17;;
48703;SDS011;34502;51.296;16.918;2022-12-07T03:55:37;1.55;;;1.10;;
48703;SDS011;34502;51.296;16.918;2022-12-07T03:58:08;1.38;;;1.27;;
48703;SDS011;34502;51.296;16.918;2022-12-07T04:00:36;3.33;;;0.90;;
48703;SDS011;34502;51.296;16.918;2022-12-07T04:03:02;1.45;;;1.20;;
48703;SDS011;34502;51.296;16.918;2022-12-07T04:05:28;1.27;;;1.02;;
48703;SDS011;34502;51.296;16.918;2022-12-07T04:07:55;1.48;;;1.00;;
48703;SDS011;34502;51.296;16.918;2022-12-07T04:10:21;1.45;;;1.27;;
48703;SDS011;34502;51.296;16.918;2022-12-07T04:12:47;1.20;;;1.10;;
48703;SDS011;34502;51.296;16.918;2022-12-07T04:15:13;1.35;;;1.25;;
48703;SDS011;34502;51.296;16.918;2022-12-07T04:17:39;2.08;;;1.42;;
48703;SDS011;34502;51.296;16.918;2022-12-07T04:20:06;1.60;;;1.50;;
48703;SDS011;34502;51.296;16.918;2022-12-07T04:22:32;1.35;;;1.10;;
48703;SDS011;34502;51.296;16.918;2022-12-07T04:24:58;1.40;;;1.30;;
48703;SDS011;34502;51.296;16.918;2022-12-07T04:27:25;1.48;;;1.38;;
48703;SDS011;34502;51.296;16.918;2022-12-07T04:29:51;1.48;;;0.98;;
48703;SDS011;34502;51.296;16.918;2022-12-07T04:32:17;2.00;;;1.17;;
48703;SDS011;34502;51.296;16.918;2022-12-07T04:34:43;1.35;;;1.25;;
48703;SDS011;34502;51.296;16.918;2022-12-07T04:37:09;1.30;;;1.20;;
48703;SDS011;34502;51.296;16.918;2022-12-07T04:39:35;1.02;;;1.02;;
48703;SDS011;34502;51.296;16.918;2022-12-07T04:42:02;1.25;;;1.00;;
48703;SDS011;34502;51.296;16.918;2022-12-07T04:44:28;1.35;;;1.25;;
48703;SDS011;34502;51.296;16.918;2022-12-07T04:46:55;1.33;;;1.10;;
48703;SDS011;34502;51.296;16.918;2022-12-07T04:49:22;0.90;;;0.90;;
48703;SDS011;34502;51.296;16.918;2022-12-07T04:51:48;1.20;;;1.10;;
48703;SDS011;34502;51.296;16.918;2022-12-07T04:54:15;1.83;;;1.33;;
48703;SDS011;34502;51.296;16.918;2022-12-07T04:56:42;1.88;;;1.38;;
48703;SDS011;34502;51.296;16.918;2022-12-07T04:59:09;1.58;;;1.40;;
48703;SDS011;34502;51.296;16.918;2022-12-07T05:01:36;2.67;;;1.90;;
48703;SDS011;34502;51.296;16.918;2022-12-07T05:04:02;2.50;;;2.15;;
48703;SDS011;34502;51.296;16.918;2022-12-07T05:06:28;3.17;;;2.63;;
48703;SDS011;34502;51.296;16.918;2022-12-07T05:08:55;2.40;;;2.20;;
48703;SDS011;34502;51.296;16.918;2022-12-07T05:11:21;3.58;;;3.10;;
48703;SDS011;34502;51.296;16.918;2022-12-07T05:16:42;4.85;;;3.55;;
48703;SDS011;34502;51.296;16.918;2022-12-07T05:19:09;4.20;;;3.72;;
48703;SDS011;34502;51.296;16.918;2022-12-07T05:21:36;4.03;;;3.58;;
48703;SDS011;34502;51.296;16.918;2022-12-07T05:24:02;4.78;;;3.97;;
48703;SDS011;34502;51.296;16.918;2022-12-07T05:26:29;4.05;;;3.58;;
48703;SDS011;34502;51.296;16.918;2022-12-07T05:28:55;4.03;;;3.63;;
48703;SDS011;34502;51.296;16.918;2022-12-07T05:31:22;3.88;;;3.47;;
48703;SDS011;34502;51.296;16.918;2022-12-07T05:33:49;4.68;;;4.18;;
48703;SDS011;34502;51.296;16.918;2022-12-07T05:36:15;4.18;;;3.78;;
48703;SDS011;34502;51.296;16.918;2022-12-07T05:38:42;5.90;;;5.07;;
48703;SDS011;34502;51.296;16.918;2022-12-07T05:41:08;7.03;;;5.07;;
48703;SDS011;34502;51.296;16.918;2022-12-07T05:43:55;6.90;;;5.85;;
48703;SDS011;34502;51.296;16.918;2022-12-07T05:46:21;6.70;;;5.68;;
48703;SDS011;34502;51.296;16.918;2022-12-07T05:48:47;15.18;;;11.63;;
48703;SDS011;34502;51.296;16.918;2022-12-07T05:51:13;10.00;;;9.00;;
48703;SDS011;34502;51.296;16.918;2022-12-07T05:53:39;9.80;;;8.75;;
48703;SDS011;34502;51.296;16.918;2022-12-07T05:56:05;9.73;;;8.25;;
48703;SDS011;34502;51.296;16.918;2022-12-07T05:58:32;11.73;;;9.32;;
48703;SDS011;34502;51.296;16.918;2022-12-07T06:01:16;11.68;;;8.93;;
48703;SDS011;34502;51.296;16.918;2022-12-07T06:03:42;13.05;;;9.90;;
48703;SDS011;34502;51.296;16.918;2022-12-07T06:06:09;11.48;;;9.73;;
48703;SDS011;34502;51.296;16.918;2022-12-07T06:08:36;12.20;;;9.55;;
48703;SDS011;34502;51.296;16.918;2022-12-07T06:11:02;13.20;;;10.85;;
48703;SDS011;34502;51.296;16.918;2022-12-07T06:13:46;14.93;;;11.15;;
48703;SDS011;34502;51.296;16.918;2022-12-07T06:16:12;15.63;;;11.85;;
48703;SDS011;34502;51.296;16.918;2022-12-07T06:18:38;13.88;;;11.05;;
48703;SDS011;34502;51.296;16.918;2022-12-07T06:21:04;15.15;;;12.43;;
48703;SDS011;34502;51.296;16.918;2022-12-07T06:23:30;18.23;;;12.23;;
48703;SDS011;34502;51.296;16.918;2022-12-07T06:25:57;14.32;;;12.10;;
48703;SDS011;34502;51.296;16.918;2022-12-07T06:28:23;16.08;;;12.20;;
48703;SDS011;34502;51.296;16.918;2022-12-07T06:30:56;17.95;;;12.63;;
48703;SDS011;34502;51.296;16.918;2022-12-07T06:33:23;18.75;;;13.90;;
48703;SDS011;34502;51.296;16.918;2022-12-07T06:35:50;17.02;;;12.73;;
48703;SDS011;34502;51.296;16.918;2022-12-07T06:38:16;18.95;;;13.82;;
48703;SDS011;34502;51.296;16.918;2022-12-07T06:40:42;17.35;;;13.38;;
48703;SDS011;34502;51.296;16.918;2022-12-07T06:43:08;19.92;;;14.07;;
48703;SDS011;34502;51.296;16.918;2022-12-07T06:45:34;20.23;;;15.50;;
48703;SDS011;34502;51.296;16.918;2022-12-07T06:48:00;17.65;;;14.35;;
48703;SDS011;34502;51.296;16.918;2022-12-07T06:50:27;16.98;;;13.70;;
48703;SDS011;34502;51.296;16.918;2022-12-07T06:52:53;18.75;;;13.70;;
48703;SDS011;34502;51.296;16.918;2022-12-07T06:55:19;19.65;;;14.23;;
48703;SDS011;34502;51.296;16.918;2022-12-07T06:57:45;16.17;;;13.73;;
48703;SDS011;34502;51.296;16.918;2022-12-07T07:00:11;19.13;;;13.55;;
48703;SDS011;34502;51.296;16.918;2022-12-07T07:02:38;18.38;;;13.52;;
48703;SDS011;34502;51.296;16.918;2022-12-07T07:05:04;16.60;;;12.77;;
48703;SDS011;34502;51.296;16.918;2022-12-07T07:07:30;18.80;;;14.23;;
48703;SDS011;34502;51.296;16.918;2022-12-07T07:09:56;17.42;;;13.15;;
48703;SDS011;34502;51.296;16.918;2022-12-07T07:12:22;18.42;;;14.20;;
48703;SDS011;34502;51.296;16.918;2022-12-07T07:14:49;18.98;;;14.65;;
48703;SDS011;34502;51.296;16.918;2022-12-07T07:17:15;15.07;;;12.30;;
48703;SDS011;34502;51.296;16.918;2022-12-07T07:19:41;19.52;;;14.85;;
48703;SDS011;34502;51.296;16.918;2022-12-07T07:22:07;20.55;;;14.65;;
48703;SDS011;34502;51.296;16.918;2022-12-07T07:24:33;20.70;;;15.63;;
48703;SDS011;34502;51.296;16.918;2022-12-07T07:26:59;21.25;;;14.48;;
48703;SDS011;34502;51.296;16.918;2022-12-07T07:29:26;18.58;;;13.82;;
48703;SDS011;34502;51.296;16.918;2022-12-07T07:31:52;20.33;;;15.27;;
48703;SDS011;34502;51.296;16.918;2022-12-07T07:34:18;20.63;;;15.15;;
48703;SDS011;34502;51.296;16.918;2022-12-07T16:02:26;8.60;;;4.93;;
48703;SDS011;34502;51.296;16.918;2022-12-07T16:04:52;4.65;;;3.63;;
48703;SDS011;34502;51.296;16.918;2022-12-07T16:07:18;9.23;;;3.65;;
48703;SDS011;34502;51.296;16.918;2022-12-07T16:09:45;5.43;;;4.55;;
48703;SDS011;34502;51.296;16.918;2022-12-07T16:12:12;12.50;;;6.03;;
48703;SDS011;34502;51.296;16.918;2022-12-07T16:14:39;10.35;;;5.43;;
48703;SDS011;34502;51.296;16.918;2022-12-07T16:17:06;6.93;;;4.03;;
48703;SDS011;34502;51.296;16.918;2022-12-07T16:19:33;8.73;;;4.43;;
48703;SDS011;34502;51.296;16.918;2022-12-07T16:21:59;9.20;;;4.50;;
48703;SDS011;34502;51.296;16.918;2022-12-07T16:24:26;5.93;;;4.07;;
48703;SDS011;34502;51.296;16.918;2022-12-07T16:26:52;7.50;;;4.40;;
48703;SDS011;34502;51.296;16.918;2022-12-07T16:29:20;7.88;;;4.43;;
48703;SDS011;34502;51.296;16.918;2022-12-07T16:31:47;8.20;;;4.80;;
48703;SDS011;34502;51.296;16.918;2022-12-07T16:34:14;7.45;;;5.40;;
48703;SDS011;34502;51.296;16.918;2022-12-07T16:36:40;10.77;;;6.20;;
48703;SDS011;34502;51.296;16.918;2022-12-07T16:39:06;11.82;;;6.20;;
48703;SDS011;34502;51.296;16.918;2022-12-07T16:41:33;9.70;;;5.53;;
48703;SDS011;34502;51.296;16.918;2022-12-07T16:44:03;13.27;;;6.78;;
48703;SDS011;34502;51.296;16.918;2022-12-07T16:46:32;20.13;;;10.30;;
48703;SDS011;34502;51.296;16.918;2022-12-07T16:48:58;11.93;;;6.82;;
48703;SDS011;34502;51.296;16.918;2022-12-07T16:51:24;32.42;;;13.88;;
48703;SDS011;34502;51.296;16.918;2022-12-07T16:53:52;19.05;;;9.70;;
48703;SDS011;34502;51.296;16.918;2022-12-07T16:56:18;18.92;;;9.25;;
48703;SDS011;34502;51.296;16.918;2022-12-07T16:58:45;12.38;;;8.27;;
48703;SDS011;34502;51.296;16.918;2022-12-07T17:01:14;13.40;;;8.15;;
48703;SDS011;34502;51.296;16.918;2022-12-07T17:03:41;13.13;;;8.63;;
48703;SDS011;34502;51.296;16.918;2022-12-07T17:06:15;11.55;;;7.35;;
48703;SDS011;34502;51.296;16.918;2022-12-07T17:08:43;8.70;;;5.65;;
48703;SDS011;34502;51.296;16.918;2022-12-07T17:11:13;14.25;;;5.88;;
48703;SDS011;34502;51.296;16.918;2022-12-07T17:13:40;8.30;;;5.47;;
48703;SDS011;34502;51.296;16.918;2022-12-07T17:16:25;10.05;;;6.85;;
48703;SDS011;34502;51.296;16.918;2022-12-07T17:18:52;11.20;;;7.88;;
48703;SDS011;34502;51.296;16.918;2022-12-07T17:21:18;12.38;;;7.68;;
48703;SDS011;34502;51.296;16.918;2022-12-07T17:23:44;16.98;;;9.32;;
48703;SDS011;34502;51.296;16.918;2022-12-07T17:26:12;11.30;;;7.95;;
48703;SDS011;34502;51.296;16.918;2022-12-07T17:28:57;18.40;;;11.02;;
48703;SDS011;34502;51.296;16.918;2022-12-07T17:31:24;8.52;;;7.07;;
48703;SDS011;34502;51.296;16.918;2022-12-07T17:33:50;17.45;;;9.73;;
48703;SDS011;34502;51.296;16.918;2022-12-07T17:36:20;11.35;;;7.85;;
48703;SDS011;34502;51.296;16.918;2022-12-07T17:38:48;17.45;;;9.93;;
48703;SDS011;34502;51.296;16.918;2022-12-07T17:41:16;13.88;;;8.90;;
48703;SDS011;34502;51.296;16.918;2022-12-07T17:44:02;15.55;;;8.30;;
48703;SDS011;34502;51.296;16.918;2022-12-07T17:46:30;11.50;;;7.80;;
48703;SDS011;34502;51.296;16.918;2022-12-07T17:48:57;12.77;;;8.90;;
48703;SDS011;34502;51.296;16.918;2022-12-07T17:51:23;17.83;;;9.00;;
48703;SDS011;34502;51.296;16.918;2022-12-07T17:54:08;13.60;;;8.40;;
48703;SDS011;34502;51.296;16.918;2022-12-07T17:56:36;16.95;;;9.77;;
48703;SDS011;34502;51.296;16.918;2022-12-07T17:59:02;16.42;;;9.90;;
48703;SDS011;34502;51.296;16.918;2022-12-07T18:01:28;20.55;;;12.25;;
48703;SDS011;34502;51.296;16.918;2022-12-07T18:03:54;10.75;;;8.05;;
48703;SDS011;34502;51.296;16.918;2022-12-07T18:06:21;18.65;;;10.57;;
48703;SDS011;34502;51.296;16.918;2022-12-07T18:08:47;22.77;;;11.95;;
48703;SDS011;34502;51.296;16.918;2022-12-07T18:11:13;14.50;;;8.90;;
48703;SDS011;34502;51.296;16.918;2022-12-07T18:13:39;16.70;;;9.25;;
48703;SDS011;34502;51.296;16.918;2022-12-07T18:16:12;11.38;;;7.53;;
48703;SDS011;34502;51.296;16.918;2022-12-07T18:18:41;18.13;;;10.73;;
48703;SDS011;34502;51.296;16.918;2022-12-07T18:21:08;20.38;;;13.07;;
48703;SDS011;34502;51.296;16.918;2022-12-07T18:23:38;18.92;;;13.00;;
48703;SDS011;34502;51.296;16.918;2022-12-07T18:26:05;14.52;;;9.68;;
48703;SDS011;34502;51.296;16.918;2022-12-07T18:28:31;13.32;;;8.45;;
48703;SDS011;34502;51.296;16.918;2022-12-07T18:30:57;18.15;;;9.20;;
48703;SDS011;34502;51.296;16.918;2022-12-07T18:33:23;22.42;;;14.20;;
48703;SDS011;34502;51.296;16.918;2022-12-07T18:35:49;30.38;;;20.45;;
48703;SDS011;34502;51.296;16.918;2022-12-07T18:38:16;20.65;;;13.40;;
48703;SDS011;34502;51.296;16.918;2022-12-07T18:40:43;23.75;;;14.43;;
48703;SDS011;34502;51.296;16.918;2022-12-07T18:43:10;24.88;;;16.38;;
48703;SDS011;34502;51.296;16.918;2022-12-07T18:45:37;14.52;;;10.10;;
48703;SDS011;34502;51.296;16.918;2022-12-07T18:48:04;19.73;;;16.00;;
48703;SDS011;34502;51.296;16.918;2022-12-07T18:50:31;14.98;;;9.55;;
48703;SDS011;34502;51.296;16.918;2022-12-07T18:53:01;13.27;;;7.57;;
48703;SDS011;34502;51.296;16.918;2022-12-07T18:55:28;19.20;;;9.48;;
48703;SDS011;34502;51.296;16.918;2022-12-07T18:57:55;15.00;;;9.93;;
48703;SDS011;34502;51.296;16.918;2022-12-07T19:00:22;20.02;;;13.10;;
48703;SDS011;34502;51.296;16.918;2022-12-07T19:02:50;17.17;;;10.90;;
48703;SDS011;34502;51.296;16.918;2022-12-07T19:05:17;15.55;;;10.02;;
48703;SDS011;34502;51.296;16.918;2022-12-07T19:07:43;17.77;;;11.88;;
48703;SDS011;34502;51.296;16.918;2022-12-07T19:10:10;15.25;;;10.30;;
48703;SDS011;34502;51.296;16.918;2022-12-07T19:12:37;18.67;;;12.20;;
48703;SDS011;34502;51.296;16.918;2022-12-07T19:15:04;17.08;;;10.50;;
48703;SDS011;34502;51.296;16.918;2022-12-07T19:17:32;15.93;;;10.80;;
48703;SDS011;34502;51.296;16.918;2022-12-07T19:19:58;13.95;;;9.60;;
48703;SDS011;34502;51.296;16.918;2022-12-07T19:22:24;15.15;;;9.77;;
48703;SDS011;34502;51.296;16.918;2022-12-07T19:24:51;14.60;;;8.70;;
48703;SDS011;34502;51.296;16.918;2022-12-07T19:27:18;12.50;;;8.77;;
48703;SDS011;34502;51.296;16.918;2022-12-07T19:29:45;13.02;;;8.82;;
48703;SDS011;34502;51.296;16.918;2022-12-07T19:32:12;14.13;;;8.13;;
48703;SDS011;34502;51.296;16.918;2022-12-07T19:34:39;19.13;;;9.10;;
48703;SDS011;34502;51.296;16.918;2022-12-07T19:37:06;15.50;;;9.35;;
48703;SDS011;34502;51.296;16.918;2022-12-07T19:39:33;13.98;;;8.77;;
48703;SDS011;34502;51.296;16.918;2022-12-07T19:42:00;16.35;;;8.82;;
48703;SDS011;34502;51.296;16.918;2022-12-07T19:44:26;20.05;;;9.35;;
48703;SDS011;34502;51.296;16.918;2022-12-07T19:46:55;16.55;;;9.65;;
48703;SDS011;34502;51.296;16.918;2022-12-07T19:49:23;18.77;;;10.30;;
48703;SDS011;34502;51.296;16.918;2022-12-07T19:51:52;13.90;;;9.15;;
48703;SDS011;34502;51.296;16.918;2022-12-07T19:54:21;14.43;;;9.27;;
48703;SDS011;34502;51.296;16.918;2022-12-07T19:56:49;14.25;;;9.00;;
48703;SDS011;34502;51.296;16.918;2022-12-07T19:59:16;14.15;;;8.95;;
48703;SDS011;34502;51.296;16.918;2022-12-07T20:01:43;14.02;;;9.35;;
48703;SDS011;34502;51.296;16.918;2022-12-07T20:04:13;12.40;;;8.73;;
48703;SDS011;34502;51.296;16.918;2022-12-07T20:06:41;12.52;;;9.02;;
48703;SDS011;34502;51.296;16.918;2022-12-07T20:09:08;14.73;;;8.20;;
48703;SDS011;34502;51.296;16.918;2022-12-07T20:11:35;16.00;;;10.30;;
48703;SDS011;34502;51.296;16.918;2022-12-07T20:14:20;14.50;;;8.98;;
48703;SDS011;34502;51.296;16.918;2022-12-07T20:16:46;15.38;;;9.57;;
48703;SDS011;34502;51.296;16.918;2022-12-07T20:19:13;16.92;;;9.50;;
48703;SDS011;34502;51.296;16.918;2022-12-07T20:21:40;15.75;;;10.43;;
48703;SDS011;34502;51.296;16.918;2022-12-07T20:24:08;13.90;;;9.90;;
48703;SDS011;34502;51.296;16.918;2022-12-07T20:26:41;23.08;;;11.32;;
48703;SDS011;34502;51.296;16.918;2022-12-07T20:29:09;16.15;;;10.15;;
48703;SDS011;34502;51.296;16.918;2022-12-07T20:31:38;18.27;;;10.05;;
48703;SDS011;34502;51.296;16.918;2022-12-07T20:34:06;16.45;;;10.35;;
48703;SDS011;34502;51.296;16.918;2022-12-07T20:36:32;14.95;;;10.18;;
48703;SDS011;34502;51.296;16.918;2022-12-07T20:38:59;16.20;;;10.32;;
48703;SDS011;34502;51.296;16.918;2022-12-07T20:41:26;16.33;;;10.55;;
48703;SDS011;34502;51.296;16.918;2022-12-07T20:44:14;16.15;;;10.55;;
48703;SDS011;34502;51.296;16.918;2022-12-07T20:46:41;16.23;;;10.38;;
48703;SDS011;34502;51.296;16.918;2022-12-07T20:49:08;16.08;;;9.32;;
48703;SDS011;34502;51.296;16.918;2022-12-07T20:51:35;13.68;;;9.50;;
48703;SDS011;34502;51.296;16.918;2022-12-07T20:54:01;16.10;;;10.15;;
48703;SDS011;34502;51.296;16.918;2022-12-07T20:56:28;13.80;;;9.30;;
48703;SDS011;34502;51.296;16.918;2022-12-07T20:58:56;16.38;;;11.02;;
48703;SDS011;34502;51.296;16.918;2022-12-07T21:01:23;19.42;;;10.40;;
48703;SDS011;34502;51.296;16.918;2022-12-07T21:03:53;15.63;;;9.65;;
48703;SDS011;34502;51.296;16.918;2022-12-07T21:06:20;16.20;;;10.82;;
48703;SDS011;34502;51.296;16.918;2022-12-07T21:08:47;12.75;;;9.98;;
48703;SDS011;34502;51.296;16.918;2022-12-07T21:11:15;16.23;;;10.07;;
48703;SDS011;34502;51.296;16.918;2022-12-07T21:13:42;18.35;;;10.95;;
48703;SDS011;34502;51.296;16.918;2022-12-07T21:16:09;20.27;;;10.30;;
48703;SDS011;34502;51.296;16.918;2022-12-07T21:18:37;20.60;;;12.38;;
48703;SDS011;34502;51.296;16.918;2022-12-07T21:21:05;21.77;;;13.13;;
48703;SDS011;34502;51.296;16.918;2022-12-07T21:23:32;16.42;;;10.55;;
48703;SDS011;34502;51.296;16.918;2022-12-07T21:25:58;30.02;;;17.48;;
48703;SDS011;34502;51.296;16.918;2022-12-07T21:28:25;41.63;;;26.95;;
48703;SDS011;34502;51.296;16.918;2022-12-07T21:30:55;19.25;;;12.02;;
48703;SDS011;34502;51.296;16.918;2022-12-07T21:33:22;22.85;;;16.02;;
48703;SDS011;34502;51.296;16.918;2022-12-07T21:35:48;29.95;;;20.23;;
48703;SDS011;34502;51.296;16.918;2022-12-07T21:38:14;49.35;;;29.83;;
48703;SDS011;34502;51.296;16.918;2022-12-07T21:40:40;23.42;;;15.43;;
48703;SDS011;34502;51.296;16.918;2022-12-07T21:43:06;17.85;;;12.40;;
48703;SDS011;34502;51.296;16.918;2022-12-07T21:45:32;17.95;;;10.88;;
48703;SDS011;34502;51.296;16.918;2022-12-07T21:47:58;16.83;;;11.02;;
48703;SDS011;34502;51.296;16.918;2022-12-07T21:50:24;13.02;;;8.80;;
48703;SDS011;34502;51.296;16.918;2022-12-07T21:52:50;19.33;;;12.25;;
48703;SDS011;34502;51.296;16.918;2022-12-07T21:55:17;17.55;;;10.45;;
48703;SDS011;34502;51.296;16.918;2022-12-07T21:57:43;14.95;;;10.90;;
48703;SDS011;34502;51.296;16.918;2022-12-07T22:00:09;20.17;;;10.70;;
48703;SDS011;34502;51.296;16.918;2022-12-07T22:02:35;14.10;;;9.60;;
48703;SDS011;34502;51.296;16.918;2022-12-07T22:05:02;16.52;;;10.32;;
48703;SDS011;34502;51.296;16.918;2022-12-07T22:07:28;24.08;;;14.68;;
48703;SDS011;34502;51.296;16.918;2022-12-07T22:09:54;12.95;;;9.40;;
48703;SDS011;34502;51.296;16.918;2022-12-07T22:12:20;14.88;;;10.63;;
48703;SDS011;34502;51.296;16.918;2022-12-07T22:14:46;15.80;;;9.10;;
48703;SDS011;34502;51.296;16.918;2022-12-07T22:17:30;17.85;;;10.85;;
48703;SDS011;34502;51.296;16.918;2022-12-07T22:19:57;20.77;;;10.02;;
48703;SDS011;34502;51.296;16.918;2022-12-07T22:22:23;18.30;;;9.90;;
48703;SDS011;34502;51.296;16.918;2022-12-07T22:24:49;18.25;;;10.23;;
48703;SDS011;34502;51.296;16.918;2022-12-07T22:27:16;17.33;;;9.10;;
48703;SDS011;34502;51.296;16.918;2022-12-07T22:29:43;23.23;;;9.50;;
48703;SDS011;34502;51.296;16.918;2022-12-07T22:32:09;19.02;;;10.65;;
48703;SDS011;34502;51.296;16.918;2022-12-07T22:34:35;23.98;;;9.98;;
48703;SDS011;34502;51.296;16.918;2022-12-07T22:37:01;23.35;;;12.57;;
48703;SDS011;34502;51.296;16.918;2022-12-07T22:39:27;21.75;;;12.48;;
48703;SDS011;34502;51.296;16.918;2022-12-07T22:41:53;18.30;;;10.40;;
48703;SDS011;34502;51.296;16.918;2022-12-07T22:44:19;18.77;;;9.18;;
48703;SDS011;34502;51.296;16.918;2022-12-07T22:46:45;13.93;;;8.98;;
48703;SDS011;34502;51.296;16.918;2022-12-07T22:49:12;11.38;;;7.95;;
48703;SDS011;34502;51.296;16.918;2022-12-07T22:51:38;12.00;;;5.93;;
48703;SDS011;34502;51.296;16.918;2022-12-07T22:54:10;10.57;;;6.22;;
48703;SDS011;34502;51.296;16.918;2022-12-07T22:56:42;9.52;;;6.15;;
48703;SDS011;34502;51.296;16.918;2022-12-07T22:59:09;9.18;;;6.00;;
48703;SDS011;34502;51.296;16.918;2022-12-07T23:01:36;8.25;;;5.53;;
48703;SDS011;34502;51.296;16.918;2022-12-07T23:04:02;11.10;;;6.22;;
48703;SDS011;34502;51.296;16.918;2022-12-07T23:06:29;13.25;;;6.28;;
48703;SDS011;34502;51.296;16.918;2022-12-07T23:08:58;9.05;;;6.40;;
48703;SDS011;34502;51.296;16.918;2022-12-07T23:11:26;14.35;;;6.53;;
48703;SDS011;34502;51.296;16.918;2022-12-07T23:14:12;9.48;;;6.57;;
48703;SDS011;34502;51.296;16.918;2022-12-07T23:16:58;11.75;;;6.88;;
48703;SDS011;34502;51.296;16.918;2022-12-07T23:19:24;11.63;;;7.55;;
48703;SDS011;34502;51.296;16.918;2022-12-07T23:21:50;9.45;;;6.30;;
48703;SDS011;34502;51.296;16.918;2022-12-07T23:24:16;16.40;;;7.75;;
48703;SDS011;34502;51.296;16.918;2022-12-07T23:26:43;10.38;;;7.93;;
48703;SDS011;34502;51.296;16.918;2022-12-07T23:29:10;13.18;;;7.70;;
48703;SDS011;34502;51.296;16.918;2022-12-07T23:31:37;14.52;;;8.63;;
48703;SDS011;34502;51.296;16.918;2022-12-07T23:34:04;12.77;;;8.90;;